Time,TemperatureF,DewpointF,PressureIn,WindDirection,WindDirectionDegrees,WindSpeedMPH,WindSpeedGustMPH,Humidity,HourlyPrecipIn,Conditions,Clouds,dailyrainin,SoftwareType,DateUTC
2013-12-02 00:01:00,38.8,26.0,30.67,SSE,158,0.0,0.0,60,0.00,,,0.00,WUHU216HW,2013-12-02 05:01:00,
2013-12-02 00:06:00,38.8,26.0,30.67,South,180,0.0,0.0,60,0.00,,,0.00,WUHU216HW,2013-12-02 05:06:00,
2013-12-02 00:11:00,38.8,26.4,30.66,South,180,0.0,0.0,61,0.00,,,0.00,WUHU216HW,2013-12-02 05:11:00,
2013-12-02 00:16:00,38.8,26.4,30.66,South,180,0.0,0.0,61,0.00,,,0.00,WUHU216HW,2013-12-02 05:16:00,
2013-12-02 00:21:00,39.0,26.4,30.66,South,180,0.0,0.0,61,0.00,,,0.00,WUHU216HW,2013-12-02 05:21:00,
2013-12-02 00:26:00,38.8,26.4,30.66,South,180,0.0,0.0,61,0.00,,,0.00,WUHU216HW,2013-12-02 05:26:00,
2013-12-02 00:31:00,39.0,26.6,30.65,South,180,0.0,0.0,61,0.00,,,0.00,WUHU216HW,2013-12-02 05:31:00,
2013-12-02 00:36:00,39.2,26.6,30.65,South,180,0.0,0.0,61,0.00,,,0.00,WUHU216HW,2013-12-02 05:36:00,
2013-12-02 00:41:00,39.0,26.6,30.66,SSE,158,0.0,0.0,61,0.00,,,0.00,WUHU216HW,2013-12-02 05:41:00,
2013-12-02 00:46:00,38.8,26.4,30.66,ESE,113,0.0,0.6,61,0.00,,,0.00,WUHU216HW,2013-12-02 05:46:00,
2013-12-02 00:51:00,38.6,26.3,30.65,South,180,0.0,0.6,61,0.00,,,0.00,WUHU216HW,2013-12-02 05:51:00,
2013-12-02 00:56:00,38.4,26.1,30.65,SSE,158,0.0,0.0,61,0.00,,,0.00,WUHU216HW,2013-12-02 05:56:00,
2013-12-02 01:01:00,38.1,25.9,30.65,ESE,113,0.0,0.0,61,0.00,,,0.00,WUHU216HW,2013-12-02 06:01:00,
2013-12-02 01:06:00,37.9,25.6,30.65,SSE,158,0.6,0.6,61,0.00,,,0.00,WUHU216HW,2013-12-02 06:06:00,
2013-12-02 01:11:00,37.7,25.5,30.65,SE,135,0.0,1.3,61,0.00,,,0.00,WUHU216HW,2013-12-02 06:11:00,
2013-12-02 01:16:00,37.5,25.3,30.65,SSE,158,0.0,1.3,61,0.00,,,0.00,WUHU216HW,2013-12-02 06:16:00,
2013-12-02 01:21:00,37.5,25.3,30.66,SSE,158,1.1,1.1,61,0.00,,,0.00,WUHU216HW,2013-12-02 06:21:00,
2013-12-02 01:26:00,37.5,25.7,30.65,SE,135,0.0,2.2,62,0.00,,,0.00,WUHU216HW,2013-12-02 06:26:00,
2013-12-02 01:31:00,37.4,25.3,30.65,SSE,158,0.0,2.2,62,0.00,,,0.00,WUHU216HW,2013-12-02 06:31:00,
2013-12-02 01:36:00,37.2,25.3,30.65,SSE,158,0.0,0.0,62,0.00,,,0.00,WUHU216HW,2013-12-02 06:36:00,
2013-12-02 01:41:00,37.4,25.3,30.65,South,180,0.0,0.0,62,0.00,,,0.00,WUHU216HW,2013-12-02 06:41:00,
2013-12-02 01:46:00,37.2,25.3,30.65,SSW,203,0.0,0.0,62,0.00,,,0.00,WUHU216HW,2013-12-02 06:46:00,
2013-12-02 01:51:00,37.4,25.5,30.65,SSE,158,0.0,0.0,62,0.00,,,0.00,WUHU216HW,2013-12-02 06:51:00,
2013-12-02 01:56:00,37.2,25.3,30.65,SSE,158,0.0,0.0,62,0.00,,,0.00,WUHU216HW,2013-12-02 06:56:00,
2013-12-02 02:01:00,37.2,25.3,30.65,SSE,158,1.3,1.3,62,0.00,,,0.00,WUHU216HW,2013-12-02 07:01:00,
2013-12-02 02:10:00,37.2,25.2,30.65,SSE,158,1.1,1.3,62,0.00,,,0.00,WUHU216HW,2013-12-02 07:10:00,
2013-12-02 02:15:00,37.2,25.7,30.65,SE,135,0.0,1.1,63,0.00,,,0.00,WUHU216HW,2013-12-02 07:15:00,
2013-12-02 02:20:00,37.0,25.5,30.64,SSE,158,0.0,1.3,63,0.00,,,0.00,WUHU216HW,2013-12-02 07:20:00,
2013-12-02 02:25:00,37.0,25.5,30.65,SSE,158,0.0,1.3,63,0.00,,,0.00,WUHU216HW,2013-12-02 07:25:00,
2013-12-02 02:30:00,37.0,25.5,30.64,SSE,158,0.0,0.0,63,0.00,,,0.00,WUHU216HW,2013-12-02 07:30:00,
2013-12-02 02:35:00,37.0,25.5,30.65,SE,135,0.0,2.0,63,0.00,,,0.00,WUHU216HW,2013-12-02 07:35:00,
2013-12-02 02:40:00,37.0,25.5,30.65,SSE,158,0.0,2.2,63,0.00,,,0.00,WUHU216HW,2013-12-02 07:40:00,
2013-12-02 02:45:00,37.0,25.5,30.65,SSW,203,1.1,4.6,63,0.00,,,0.00,WUHU216HW,2013-12-02 07:45:00,
2013-12-02 02:50:00,37.0,25.5,30.65,South,180,0.0,4.6,63,0.00,,,0.00,WUHU216HW,2013-12-02 07:50:00,
2013-12-02 02:55:00,37.4,25.9,30.64,SSE,158,0.0,2.2,63,0.00,,,0.00,WUHU216HW,2013-12-02 07:55:00,
2013-12-02 03:00:00,37.0,25.5,30.64,SSE,158,1.3,1.3,63,0.00,,,0.00,WUHU216HW,2013-12-02 08:00:00,
2013-12-02 03:10:00,37.2,25.7,30.64,SSE,158,1.3,1.3,63,0.00,,,0.00,WUHU216HW,2013-12-02 08:10:00,
2013-12-02 03:15:00,37.4,25.9,30.64,SSE,158,0.0,1.3,63,0.00,,,0.00,WUHU216HW,2013-12-02 08:15:00,
2013-12-02 03:20:00,37.2,25.7,30.64,SSE,158,0.0,0.0,63,0.00,,,0.00,WUHU216HW,2013-12-02 08:20:00,
2013-12-02 03:25:00,37.4,25.9,30.64,SSE,158,1.3,1.5,63,0.00,,,0.00,WUHU216HW,2013-12-02 08:25:00,
2013-12-02 03:30:00,37.2,25.7,30.64,SSE,158,0.0,1.5,63,0.00,,,0.00,WUHU216HW,2013-12-02 08:30:00,
2013-12-02 03:35:00,37.2,25.7,30.64,SSE,158,0.0,1.1,63,0.00,,,0.00,WUHU216HW,2013-12-02 08:35:00,
2013-12-02 03:40:00,37.2,25.7,30.63,SSE,158,0.0,0.8,63,0.00,,,0.00,WUHU216HW,2013-12-02 08:40:00,
2013-12-02 03:45:00,37.4,25.5,30.63,SSE,158,0.0,0.0,63,0.00,,,0.00,WUHU216HW,2013-12-02 08:45:00,
2013-12-02 03:50:00,37.0,25.5,30.63,SSE,158,0.0,1.5,63,0.00,,,0.00,WUHU216HW,2013-12-02 08:50:00,
2013-12-02 03:55:00,37.0,25.5,30.63,South,180,0.0,2.2,63,0.00,,,0.00,WUHU216HW,2013-12-02 08:55:00,
2013-12-02 04:00:00,37.0,25.5,30.63,SSE,158,1.3,2.2,63,0.00,,,0.00,WUHU216HW,2013-12-02 09:00:00,
2013-12-02 04:10:00,37.0,25.5,30.63,South,180,0.0,1.3,63,0.00,,,0.00,WUHU216HW,2013-12-02 09:10:00,
2013-12-02 04:15:00,37.0,25.5,30.62,SSE,158,0.0,0.0,63,0.00,,,0.00,WUHU216HW,2013-12-02 09:15:00,
2013-12-02 04:20:00,37.0,25.5,30.62,SSE,158,0.0,0.0,63,0.00,,,0.00,WUHU216HW,2013-12-02 09:20:00,
2013-12-02 04:25:00,36.8,25.4,30.62,SSE,158,0.0,0.0,63,0.00,,,0.00,WUHU216HW,2013-12-02 09:25:00,
2013-12-02 04:30:00,36.8,25.4,30.61,SSE,158,0.0,0.0,63,0.00,,,0.00,WUHU216HW,2013-12-02 09:30:00,
2013-12-02 04:35:00,36.6,25.4,30.61,SSE,158,0.0,0.0,63,0.00,,,0.00,WUHU216HW,2013-12-02 09:35:00,
2013-12-02 04:40:00,36.6,25.2,30.61,SSE,158,1.1,1.1,63,0.00,,,0.00,WUHU216HW,2013-12-02 09:40:00,
2013-12-02 04:45:00,36.5,25.0,30.61,South,180,0.0,1.1,63,0.00,,,0.00,WUHU216HW,2013-12-02 09:45:00,
2013-12-02 04:50:00,36.5,25.0,30.61,South,180,0.0,1.1,63,0.00,,,0.00,WUHU216HW,2013-12-02 09:50:00,
2013-12-02 04:55:00,36.5,25.0,30.62,South,180,0.0,1.7,63,0.00,,,0.00,WUHU216HW,2013-12-02 09:55:00,
2013-12-02 05:00:00,36.5,25.4,30.62,SSW,203,0.0,1.7,64,0.00,,,0.00,WUHU216HW,2013-12-02 10:00:00,
2013-12-02 05:10:00,36.5,25.4,30.62,SSW,203,0.0,0.0,64,0.00,,,0.00,WUHU216HW,2013-12-02 10:10:00,
2013-12-02 05:15:00,36.1,24.7,30.62,SSW,203,0.0,0.0,63,0.00,,,0.00,WUHU216HW,2013-12-02 10:15:00,
2013-12-02 05:20:00,35.9,24.5,30.61,SSW,203,0.0,0.0,63,0.00,,,0.00,WUHU216HW,2013-12-02 10:20:00,
2013-12-02 05:25:00,35.7,24.4,30.61,SSW,203,0.0,0.0,63,0.00,,,0.00,WUHU216HW,2013-12-02 10:25:00,
2013-12-02 05:30:00,35.7,24.4,30.61,SSW,203,0.0,0.0,63,0.00,,,0.00,WUHU216HW,2013-12-02 10:30:00,
2013-12-02 05:35:00,35.7,24.4,30.61,SSW,203,0.0,0.0,63,0.00,,,0.00,WUHU216HW,2013-12-02 10:35:00,
2013-12-02 05:40:00,35.7,24.4,30.61,South,180,0.0,0.0,63,0.00,,,0.00,WUHU216HW,2013-12-02 10:40:00,
2013-12-02 05:45:00,35.6,24.7,30.61,SE,135,0.0,0.0,64,0.00,,,0.00,WUHU216HW,2013-12-02 10:45:00,
2013-12-02 05:50:00,35.7,24.7,30.60,SE,135,0.0,0.0,64,0.00,,,0.00,WUHU216HW,2013-12-02 10:50:00,
2013-12-02 05:55:00,35.7,24.7,30.61,SE,135,0.0,0.0,64,0.00,,,0.00,WUHU216HW,2013-12-02 10:55:00,
2013-12-02 06:00:00,35.6,24.6,30.61,SE,135,0.0,0.0,64,0.00,,,0.00,WUHU216HW,2013-12-02 11:00:00,
2013-12-02 06:10:00,35.6,24.6,30.60,SE,135,0.0,0.0,64,0.00,,,0.00,WUHU216HW,2013-12-02 11:10:00,
2013-12-02 06:15:00,35.7,25.1,30.61,SSW,203,0.0,1.7,65,0.00,,,0.00,WUHU216HW,2013-12-02 11:15:00,
2013-12-02 06:20:00,35.7,25.1,30.61,SSE,158,0.8,2.0,65,0.00,,,0.00,WUHU216HW,2013-12-02 11:20:00,
2013-12-02 06:25:00,35.7,25.1,30.61,SSE,158,0.8,2.0,65,0.00,,,0.00,WUHU216HW,2013-12-02 11:25:00,
2013-12-02 06:30:00,35.9,25.6,30.61,SSE,158,0.0,2.0,66,0.00,,,0.00,WUHU216HW,2013-12-02 11:30:00,
2013-12-02 06:35:00,35.9,25.6,30.61,SSE,158,0.0,1.7,66,0.00,,,0.00,WUHU216HW,2013-12-02 11:35:00,
2013-12-02 06:40:00,35.9,25.6,30.61,SSE,158,0.0,1.7,66,0.00,,,0.00,WUHU216HW,2013-12-02 11:40:00,
2013-12-02 06:45:00,36.1,25.8,30.61,WSW,248,0.0,1.7,66,0.00,,,0.00,WUHU216HW,2013-12-02 11:45:00,
2013-12-02 06:50:00,36.3,26.0,30.61,South,180,0.0,1.1,66,0.00,,,0.00,WUHU216HW,2013-12-02 11:50:00,
2013-12-02 06:55:00,36.1,26.0,30.61,South,180,0.0,0.2,66,0.00,,,0.00,WUHU216HW,2013-12-02 11:55:00,
2013-12-02 07:00:00,36.3,26.0,30.61,South,180,0.0,0.2,66,0.00,,,0.00,WUHU216HW,2013-12-02 12:00:00,
2013-12-02 07:05:00,36.3,26.1,30.62,SSW,203,0.0,2.0,66,0.00,,,0.00,WUHU216HW,2013-12-02 12:05:00,
2013-12-02 07:10:00,36.1,25.8,30.62,SSW,203,0.0,2.0,66,0.00,,,0.00,WUHU216HW,2013-12-02 12:10:00,
2013-12-02 07:15:00,36.1,25.8,30.62,SSW,203,0.0,0.0,66,0.00,,,0.00,WUHU216HW,2013-12-02 12:15:00,
2013-12-02 07:20:00,35.9,25.8,30.62,SSW,203,0.0,0.0,66,0.00,,,0.00,WUHU216HW,2013-12-02 12:20:00,
2013-12-02 07:25:00,35.9,25.6,30.62,SSW,203,0.0,0.0,66,0.00,,,0.00,WUHU216HW,2013-12-02 12:25:00,
2013-12-02 07:30:00,36.1,25.8,30.62,SSW,203,0.0,0.0,66,0.00,,,0.00,WUHU216HW,2013-12-02 12:30:00,
2013-12-02 07:35:00,36.1,25.8,30.62,SSW,203,0.0,0.0,66,0.00,,,0.00,WUHU216HW,2013-12-02 12:35:00,
2013-12-02 07:40:00,36.1,25.8,30.63,SSW,203,0.0,0.0,66,0.00,,,0.00,WUHU216HW,2013-12-02 12:40:00,
2013-12-02 07:45:00,36.1,25.8,30.63,SSW,203,0.0,0.0,66,0.00,,,0.00,WUHU216HW,2013-12-02 12:45:00,
2013-12-02 07:50:00,36.3,26.0,30.63,West,270,0.0,0.0,66,0.00,,,0.00,WUHU216HW,2013-12-02 12:50:00,
2013-12-02 07:55:00,36.3,26.0,30.63,West,270,0.0,0.0,66,0.00,,,0.00,WUHU216HW,2013-12-02 12:55:00,
2013-12-02 08:00:00,36.3,26.0,30.63,West,270,0.0,0.0,66,0.00,,,0.00,WUHU216HW,2013-12-02 13:00:00,
2013-12-02 08:05:00,36.3,26.0,30.63,West,270,0.0,0.0,66,0.00,,,0.00,WUHU216HW,2013-12-02 13:05:00,
2013-12-02 08:10:00,36.3,26.0,30.63,West,270,0.0,0.0,66,0.00,,,0.00,WUHU216HW,2013-12-02 13:10:00,
2013-12-02 08:15:00,36.5,26.2,30.63,West,270,0.0,0.0,66,0.00,,,0.00,WUHU216HW,2013-12-02 13:15:00,
2013-12-02 08:20:00,36.5,26.2,30.62,West,270,0.0,0.0,66,0.00,,,0.00,WUHU216HW,2013-12-02 13:20:00,
2013-12-02 08:25:00,36.5,26.2,30.62,West,270,0.0,0.0,66,0.00,,,0.00,WUHU216HW,2013-12-02 13:25:00,
2013-12-02 08:30:00,36.5,26.2,30.62,West,270,0.0,0.0,66,0.00,,,0.00,WUHU216HW,2013-12-02 13:30:00,
2013-12-02 08:35:00,36.5,26.2,30.62,West,270,0.0,0.0,66,0.00,,,0.00,WUHU216HW,2013-12-02 13:35:00,
2013-12-02 08:40:00,36.8,26.5,30.63,West,270,0.0,0.0,66,0.00,,,0.00,WUHU216HW,2013-12-02 13:40:00,
2013-12-02 08:45:00,37.0,27.0,30.63,ENE,68,0.0,0.0,67,0.00,,,0.00,WUHU216HW,2013-12-02 13:45:00,
2013-12-02 08:50:00,37.0,27.0,30.62,ENE,68,0.0,0.0,67,0.00,,,0.00,WUHU216HW,2013-12-02 13:50:00,
2013-12-02 08:55:00,37.4,27.2,30.63,NNE,23,0.0,0.0,67,0.00,,,0.00,WUHU216HW,2013-12-02 13:55:00,
2013-12-02 09:00:00,37.5,27.6,30.62,NNE,23,0.0,0.0,67,0.00,,,0.00,WUHU216HW,2013-12-02 14:00:00,
2013-12-02 09:05:00,37.7,27.7,30.62,North,0,0.0,0.0,67,0.00,,,0.00,WUHU216HW,2013-12-02 14:05:00,
2013-12-02 09:10:00,37.7,27.9,30.62,NNE,23,0.0,0.0,67,0.00,,,0.00,WUHU216HW,2013-12-02 14:10:00,
2013-12-02 09:15:00,37.9,27.9,30.62,NNE,23,0.0,0.0,67,0.00,,,0.00,WUHU216HW,2013-12-02 14:15:00,
2013-12-02 09:20:00,38.1,28.0,30.62,NNE,23,0.0,0.0,67,0.00,,,0.00,WUHU216HW,2013-12-02 14:20:00,
2013-12-02 09:25:00,38.3,28.6,30.61,NNE,23,0.0,0.0,68,0.00,,,0.00,WUHU216HW,2013-12-02 14:25:00,
2013-12-02 09:30:00,38.6,28.9,30.61,NNE,23,0.0,0.0,68,0.00,,,0.00,WUHU216HW,2013-12-02 14:30:00,
2013-12-02 09:35:00,38.8,29.1,30.61,NNE,23,0.0,0.0,68,0.00,,,0.00,WUHU216HW,2013-12-02 14:35:00,
2013-12-02 09:40:00,39.3,29.6,30.61,NNE,23,0.0,0.0,68,0.00,,,0.00,WUHU216HW,2013-12-02 14:40:00,
2013-12-02 09:45:00,39.7,29.9,30.61,NNE,23,0.0,0.0,68,0.00,,,0.00,WUHU216HW,2013-12-02 14:45:00,
2013-12-02 09:50:00,40.1,30.3,30.61,NNE,23,0.0,0.0,68,0.00,,,0.00,WUHU216HW,2013-12-02 14:50:00,
2013-12-02 09:55:00,40.6,30.8,30.61,NNE,23,0.0,0.0,68,0.00,,,0.00,WUHU216HW,2013-12-02 14:55:00,
2013-12-02 10:00:00,41.1,31.2,30.61,NNE,23,0.0,0.0,68,0.00,,,0.00,WUHU216HW,2013-12-02 15:00:00,
2013-12-02 10:05:00,41.3,31.4,30.61,NNE,23,0.0,0.0,68,0.00,,,0.00,WUHU216HW,2013-12-02 15:05:00,
2013-12-02 10:10:00,41.3,31.5,30.61,NNE,23,0.0,0.0,68,0.00,,,0.00,WUHU216HW,2013-12-02 15:10:00,
2013-12-02 10:15:00,41.5,31.3,30.61,NNE,23,0.0,0.0,67,0.00,,,0.00,WUHU216HW,2013-12-02 15:15:00,
2013-12-02 10:20:00,41.5,31.3,30.61,NNE,23,0.0,0.0,67,0.00,,,0.00,WUHU216HW,2013-12-02 15:20:00,
2013-12-02 10:25:00,41.7,31.3,30.61,WNW,293,0.0,0.0,67,0.00,,,0.00,WUHU216HW,2013-12-02 15:25:00,
2013-12-02 10:30:00,41.7,31.5,30.61,West,270,0.0,0.0,67,0.00,,,0.00,WUHU216HW,2013-12-02 15:30:00,
2013-12-02 10:35:00,41.9,31.3,30.61,West,270,0.0,0.0,66,0.00,,,0.00,WUHU216HW,2013-12-02 15:35:00,
2013-12-02 10:40:00,42.0,31.5,30.61,West,270,0.0,0.0,66,0.00,,,0.00,WUHU216HW,2013-12-02 15:40:00,
2013-12-02 10:45:00,42.4,31.8,30.60,West,270,0.0,0.0,66,0.00,,,0.00,WUHU216HW,2013-12-02 15:45:00,
2013-12-02 10:50:00,42.9,32.7,30.60,South,180,0.0,0.0,67,0.00,,,0.00,WUHU216HW,2013-12-02 15:50:00,
2013-12-02 10:55:00,43.5,33.2,30.60,South,180,0.0,1.3,67,0.00,,,0.00,WUHU216HW,2013-12-02 15:55:00,
2013-12-02 11:00:00,43.7,32.6,30.60,West,270,0.0,1.3,65,0.00,,,0.00,WUHU216HW,2013-12-02 16:00:00,
2013-12-02 11:05:00,44.0,33.1,30.60,SSW,203,0.0,0.0,65,0.00,,,0.00,WUHU216HW,2013-12-02 16:05:00,
2013-12-02 11:10:00,44.2,33.1,30.60,SSW,203,0.0,0.0,65,0.00,,,0.00,WUHU216HW,2013-12-02 16:10:00,
2013-12-02 11:15:00,44.6,33.1,30.60,SSW,203,0.0,0.0,64,0.00,,,0.00,WUHU216HW,2013-12-02 16:15:00,
2013-12-02 11:20:00,44.7,33.3,30.59,SSW,203,1.1,1.1,64,0.00,,,0.00,WUHU216HW,2013-12-02 16:20:00,
2013-12-02 11:25:00,44.7,33.3,30.59,SSW,203,0.0,1.1,64,0.00,,,0.00,WUHU216HW,2013-12-02 16:25:00,
2013-12-02 11:30:00,44.9,33.6,30.59,West,270,0.0,0.0,64,0.00,,,0.00,WUHU216HW,2013-12-02 16:30:00,
2013-12-02 11:35:00,45.5,33.4,30.58,SW,225,0.0,0.0,63,0.00,,,0.00,WUHU216HW,2013-12-02 16:35:00,
2013-12-02 11:40:00,45.8,33.9,30.58,West,270,0.0,0.0,63,0.00,,,0.00,WUHU216HW,2013-12-02 16:40:00,
2013-12-02 11:45:00,46.5,34.7,30.58,SSW,203,0.0,0.0,63,0.00,,,0.00,WUHU216HW,2013-12-02 16:45:00,
2013-12-02 11:50:00,47.1,34.7,30.58,North,0,0.0,0.0,62,0.00,,,0.00,WUHU216HW,2013-12-02 16:50:00,
2013-12-02 11:55:00,47.6,34.8,30.58,NNW,338,0.8,0.8,61,0.00,,,0.00,WUHU216HW,2013-12-02 16:55:00,
2013-12-02 12:00:00,48.3,35.9,30.57,NW,315,0.0,2.4,62,0.00,,,0.00,WUHU216HW,2013-12-02 17:00:00,
2013-12-02 12:05:00,49.1,36.2,30.57,NE,45,0.0,2.4,61,0.00,,,0.00,WUHU216HW,2013-12-02 17:05:00,
2013-12-02 12:10:00,49.4,36.1,30.57,NNE,23,0.0,1.7,60,0.00,,,0.00,WUHU216HW,2013-12-02 17:10:00,
2013-12-02 12:15:00,50.1,36.3,30.57,East,90,0.0,1.3,59,0.00,,,0.00,WUHU216HW,2013-12-02 17:15:00,
2013-12-02 12:20:00,50.3,36.1,30.57,SSW,203,0.0,0.0,58,0.00,,,0.00,WUHU216HW,2013-12-02 17:20:00,
2013-12-02 12:25:00,50.3,35.6,30.57,SW,225,0.0,0.0,57,0.00,,,0.00,WUHU216HW,2013-12-02 17:25:00,
2013-12-02 12:30:00,50.1,35.6,30.56,SSW,203,0.0,1.1,57,0.00,,,0.00,WUHU216HW,2013-12-02 17:30:00,
2013-12-02 12:35:00,50.1,35.4,30.56,WNW,293,1.3,1.3,57,0.00,,,0.00,WUHU216HW,2013-12-02 17:35:00,
2013-12-02 12:40:00,50.1,35.4,30.56,WSW,248,0.0,2.0,57,0.00,,,0.00,WUHU216HW,2013-12-02 17:40:00,
2013-12-02 12:45:00,50.1,35.4,30.56,West,270,0.0,2.0,57,0.00,,,0.00,WUHU216HW,2013-12-02 17:45:00,
2013-12-02 12:50:00,50.3,35.6,30.56,SW,225,0.0,0.0,57,0.00,,,0.00,WUHU216HW,2013-12-02 17:50:00,
2013-12-02 12:55:00,50.5,35.8,30.56,WSW,248,0.0,1.5,57,0.00,,,0.00,WUHU216HW,2013-12-02 17:55:00,
2013-12-02 13:00:00,50.3,35.2,30.56,WSW,248,0.0,1.5,56,0.00,,,0.00,WUHU216HW,2013-12-02 18:00:00,
2013-12-02 13:05:00,50.3,35.2,30.55,NNW,338,0.0,2.0,56,0.00,,,0.00,WUHU216HW,2013-12-02 18:05:00,
2013-12-02 13:10:00,50.1,35.2,30.55,WNW,293,1.7,2.0,56,0.00,,,0.00,WUHU216HW,2013-12-02 18:10:00,
2013-12-02 13:15:00,50.1,35.0,30.56,SSE,158,0.0,1.7,56,0.00,,,0.00,WUHU216HW,2013-12-02 18:15:00,
2013-12-02 13:20:00,49.8,34.7,30.55,SW,225,0.0,0.6,56,0.00,,,0.00,WUHU216HW,2013-12-02 18:20:00,
2013-12-02 13:25:00,49.4,34.3,30.55,SW,225,0.0,0.0,56,0.00,,,0.00,WUHU216HW,2013-12-02 18:25:00,
2013-12-02 13:30:00,49.1,34.0,30.55,West,270,0.0,0.0,56,0.00,,,0.00,WUHU216HW,2013-12-02 18:30:00,
2013-12-02 13:35:00,49.1,34.4,30.55,West,270,0.0,0.0,57,0.00,,,0.00,WUHU216HW,2013-12-02 18:35:00,
2013-12-02 13:40:00,48.9,34.3,30.55,WNW,293,1.1,1.1,57,0.00,,,0.00,WUHU216HW,2013-12-02 18:40:00,
2013-12-02 13:45:00,48.9,34.3,30.55,SSW,203,0.0,1.1,57,0.00,,,0.00,WUHU216HW,2013-12-02 18:45:00,
2013-12-02 13:50:00,48.9,34.3,30.55,SSW,203,0.0,0.0,58,0.00,,,0.00,WUHU216HW,2013-12-02 18:50:00,
2013-12-02 13:55:00,48.9,34.7,30.55,West,270,0.0,0.0,58,0.00,,,0.00,WUHU216HW,2013-12-02 18:55:00,
2013-12-02 14:00:00,48.9,34.7,30.55,West,270,0.0,0.0,58,0.00,,,0.00,WUHU216HW,2013-12-02 19:00:00,
2013-12-02 14:05:00,49.1,34.9,30.54,West,270,0.0,0.0,58,0.00,,,0.00,WUHU216HW,2013-12-02 19:05:00,
2013-12-02 14:10:00,48.9,34.3,30.54,West,270,0.0,0.0,57,0.00,,,0.00,WUHU216HW,2013-12-02 19:10:00,
2013-12-02 14:15:00,49.1,34.4,30.54,West,270,0.0,0.0,57,0.00,,,0.00,WUHU216HW,2013-12-02 19:15:00,
2013-12-02 14:20:00,49.1,34.4,30.54,NW,315,0.0,0.0,57,0.00,,,0.00,WUHU216HW,2013-12-02 19:20:00,
2013-12-02 14:25:00,49.1,34.4,30.53,NE,45,0.0,0.0,57,0.00,,,0.00,WUHU216HW,2013-12-02 19:25:00,
2013-12-02 14:30:00,49.4,34.8,30.53,ENE,68,0.0,0.0,57,0.00,,,0.00,WUHU216HW,2013-12-02 19:30:00,
2013-12-02 14:35:00,49.6,34.9,30.53,ENE,68,0.0,0.0,57,0.00,,,0.00,WUHU216HW,2013-12-02 19:35:00,
2013-12-02 14:40:00,49.8,35.1,30.53,ENE,68,0.0,0.0,57,0.00,,,0.00,WUHU216HW,2013-12-02 19:40:00,
2013-12-02 14:45:00,49.8,35.1,30.53,ESE,113,0.0,1.3,57,0.00,,,0.00,WUHU216HW,2013-12-02 19:45:00,
2013-12-02 14:50:00,49.6,34.9,30.53,East,90,2.0,2.0,57,0.00,,,0.00,WUHU216HW,2013-12-02 19:50:00,
2013-12-02 14:55:00,49.6,34.9,30.53,ENE,68,0.0,2.0,57,0.00,,,0.00,WUHU216HW,2013-12-02 19:55:00,
2013-12-02 15:00:00,49.6,34.9,30.52,SE,135,0.0,0.0,57,0.00,,,0.00,WUHU216HW,2013-12-02 20:00:00,
2013-12-02 15:05:00,49.6,34.9,30.52,SE,135,0.0,0.0,57,0.00,,,0.00,WUHU216HW,2013-12-02 20:05:00,
2013-12-02 15:10:00,49.6,34.3,30.52,ENE,68,0.0,0.0,56,0.00,,,0.00,WUHU216HW,2013-12-02 20:10:00,
2013-12-02 15:15:00,49.2,34.1,30.53,ENE,68,0.0,0.0,56,0.00,,,0.00,WUHU216HW,2013-12-02 20:15:00,
2013-12-02 15:20:00,49.2,34.6,30.52,NNE,23,0.0,0.0,57,0.00,,,0.00,WUHU216HW,2013-12-02 20:20:00,
2013-12-02 15:25:00,49.2,34.6,30.53,NNE,23,0.0,0.0,57,0.00,,,0.00,WUHU216HW,2013-12-02 20:25:00,
2013-12-02 15:30:00,49.2,34.6,30.53,NNE,23,0.0,0.0,57,0.00,,,0.00,WUHU216HW,2013-12-02 20:30:00,
2013-12-02 15:35:00,49.4,34.6,30.53,NNE,23,0.0,0.0,57,0.00,,,0.00,WUHU216HW,2013-12-02 20:35:00,
2013-12-02 15:40:00,49.1,34.4,30.53,NNE,23,0.0,0.0,57,0.00,,,0.00,WUHU216HW,2013-12-02 20:40:00,
2013-12-02 15:45:00,49.1,34.9,30.53,NNE,23,0.0,0.0,58,0.00,,,0.00,WUHU216HW,2013-12-02 20:45:00,
2013-12-02 15:50:00,48.9,34.7,30.53,NNE,23,0.0,0.0,58,0.00,,,0.00,WUHU216HW,2013-12-02 20:50:00,
2013-12-02 15:55:00,48.5,34.4,30.53,NNE,23,0.0,0.0,58,0.00,,,0.00,WUHU216HW,2013-12-02 20:55:00,
2013-12-02 16:00:00,48.3,34.2,30.53,NNE,23,0.0,0.0,58,0.00,,,0.00,WUHU216HW,2013-12-02 21:00:00,
2013-12-02 16:05:00,48.3,34.2,30.53,NNE,23,0.0,0.0,58,0.00,,,0.00,WUHU216HW,2013-12-02 21:05:00,
2013-12-02 16:10:00,48.2,34.5,30.53,NNE,23,0.0,0.0,59,0.00,,,0.00,WUHU216HW,2013-12-02 21:10:00,
2013-12-02 16:15:00,48.2,34.5,30.53,NNE,23,0.0,0.0,59,0.00,,,0.00,WUHU216HW,2013-12-02 21:15:00,
2013-12-02 16:20:00,47.8,34.2,30.53,NNE,23,0.0,0.0,59,0.00,,,0.00,WUHU216HW,2013-12-02 21:20:00,
2013-12-02 16:25:00,47.8,34.2,30.53,NNE,23,0.0,0.0,59,0.00,,,0.00,WUHU216HW,2013-12-02 21:25:00,
2013-12-02 16:30:00,47.4,34.0,30.53,NNE,23,0.0,0.0,59,0.00,,,0.00,WUHU216HW,2013-12-02 21:30:00,
2013-12-02 16:35:00,47.4,33.8,30.53,NNE,23,0.0,0.0,59,0.00,,,0.00,WUHU216HW,2013-12-02 21:35:00,
2013-12-02 16:40:00,47.3,33.6,30.53,NNE,23,0.0,0.0,59,0.00,,,0.00,WUHU216HW,2013-12-02 21:40:00,
2013-12-02 16:45:00,47.1,33.9,30.53,NNE,23,0.0,0.0,60,0.00,,,0.00,WUHU216HW,2013-12-02 21:45:00,
2013-12-02 16:50:00,46.9,33.8,30.53,NNE,23,0.0,0.0,60,0.00,,,0.00,WUHU216HW,2013-12-02 21:50:00,
2013-12-02 16:55:00,46.5,33.4,30.53,NE,45,0.0,0.0,60,0.00,,,0.00,WUHU216HW,2013-12-02 21:55:00,
2013-12-02 17:00:00,46.5,33.4,30.53,NE,45,0.0,0.0,60,0.00,,,0.00,WUHU216HW,2013-12-02 22:00:00,
2013-12-02 17:05:00,46.2,32.9,30.53,NE,45,0.0,0.0,60,0.00,,,0.00,WUHU216HW,2013-12-02 22:05:00,
2013-12-02 17:10:00,46.0,32.7,30.53,NE,45,0.0,0.0,60,0.00,,,0.00,WUHU216HW,2013-12-02 22:10:00,
2013-12-02 17:15:00,45.5,32.4,30.54,NE,45,0.0,0.0,60,0.00,,,0.00,WUHU216HW,2013-12-02 22:15:00,
2013-12-02 17:20:00,45.3,32.2,30.54,NE,45,0.0,0.0,60,0.00,,,0.00,WUHU216HW,2013-12-02 22:20:00,
2013-12-02 17:25:00,44.9,31.9,30.54,NE,45,0.0,0.0,60,0.00,,,0.00,WUHU216HW,2013-12-02 22:25:00,
2013-12-02 17:30:00,44.7,31.8,30.54,NE,45,0.0,0.0,60,0.00,,,0.00,WUHU216HW,2013-12-02 22:30:00,
2013-12-02 17:35:00,44.6,31.6,30.54,NE,45,0.0,0.0,60,0.00,,,0.00,WUHU216HW,2013-12-02 22:35:00,
2013-12-02 17:40:00,44.2,31.2,30.54,NE,45,0.0,0.0,60,0.00,,,0.00,WUHU216HW,2013-12-02 22:40:00,
2013-12-02 17:45:00,44.0,31.1,30.54,NE,45,0.0,0.0,60,0.00,,,0.00,WUHU216HW,2013-12-02 22:45:00,
2013-12-02 17:50:00,43.8,31.2,30.54,NE,45,0.0,0.0,60,0.00,,,0.00,WUHU216HW,2013-12-02 22:50:00,
2013-12-02 17:55:00,43.7,31.1,30.54,NNE,23,0.0,0.0,61,0.00,,,0.00,WUHU216HW,2013-12-02 22:55:00,
2013-12-02 18:00:00,43.5,31.3,30.54,NNE,23,0.0,0.0,62,0.00,,,0.00,WUHU216HW,2013-12-02 23:00:00,
2013-12-02 18:05:00,43.3,31.1,30.54,NNE,23,0.0,0.0,62,0.00,,,0.00,WUHU216HW,2013-12-02 23:05:00,
2013-12-02 18:10:00,43.1,30.9,30.54,NNE,23,0.0,0.0,62,0.00,,,0.00,WUHU216HW,2013-12-02 23:10:00,
2013-12-02 18:15:00,42.9,30.7,30.54,NE,45,0.0,0.0,62,0.00,,,0.00,WUHU216HW,2013-12-02 23:15:00,
2013-12-02 18:20:00,42.8,30.6,30.54,NNE,23,0.0,0.0,62,0.00,,,0.00,WUHU216HW,2013-12-02 23:20:00,
2013-12-02 18:25:00,42.6,30.4,30.54,NNE,23,0.0,0.0,62,0.00,,,0.00,WUHU216HW,2013-12-02 23:25:00,
2013-12-02 18:30:00,42.4,30.2,30.54,NE,45,0.0,0.0,62,0.00,,,0.00,WUHU216HW,2013-12-02 23:30:00,
2013-12-02 18:35:00,42.4,30.6,30.54,NE,45,0.0,0.0,63,0.00,,,0.00,WUHU216HW,2013-12-02 23:35:00,
2013-12-02 18:40:00,42.2,30.5,30.54,NE,45,0.0,0.0,63,0.00,,,0.00,WUHU216HW,2013-12-02 23:40:00,
2013-12-02 18:45:00,42.0,30.3,30.54,NE,45,0.0,0.0,63,0.00,,,0.00,WUHU216HW,2013-12-02 23:45:00,
2013-12-02 18:50:00,41.9,30.1,30.54,NE,45,0.0,0.0,63,0.00,,,0.00,WUHU216HW,2013-12-02 23:50:00,
2013-12-02 18:55:00,41.9,30.1,30.54,NE,45,0.0,0.0,63,0.00,,,0.00,WUHU216HW,2013-12-02 23:55:00,
2013-12-02 19:00:00,41.7,30.3,30.54,NE,45,0.0,0.0,64,0.00,,,0.00,WUHU216HW,2013-12-03 00:00:00,
2013-12-02 19:05:00,41.7,30.3,30.54,NE,45,0.0,0.0,64,0.00,,,0.00,WUHU216HW,2013-12-03 00:05:00,
2013-12-02 19:10:00,41.5,30.6,30.54,NE,45,0.0,0.0,65,0.00,,,0.00,WUHU216HW,2013-12-03 00:10:00,
2013-12-02 19:15:00,41.5,30.6,30.54,ENE,68,0.0,0.0,65,0.00,,,0.00,WUHU216HW,2013-12-03 00:15:00,
2013-12-02 19:20:00,41.3,30.4,30.55,ENE,68,0.0,0.0,65,0.00,,,0.00,WUHU216HW,2013-12-03 00:20:00,
2013-12-02 19:25:00,41.1,30.2,30.55,ENE,68,0.0,0.0,65,0.00,,,0.00,WUHU216HW,2013-12-03 00:25:00,
2013-12-02 19:30:00,41.1,30.2,30.55,ENE,68,0.0,0.0,65,0.00,,,0.00,WUHU216HW,2013-12-03 00:30:00,
2013-12-02 19:35:00,41.0,30.2,30.55,ENE,68,0.0,0.0,65,0.00,,,0.00,WUHU216HW,2013-12-03 00:35:00,
2013-12-02 19:40:00,41.1,30.2,30.55,ENE,68,0.0,0.0,65,0.00,,,0.00,WUHU216HW,2013-12-03 00:40:00,
2013-12-02 19:45:00,41.0,30.1,30.55,ENE,68,0.0,0.0,65,0.00,,,0.00,WUHU216HW,2013-12-03 00:45:00,
2013-12-02 19:50:00,41.1,30.4,30.55,ENE,68,0.0,0.0,66,0.00,,,0.00,WUHU216HW,2013-12-03 00:50:00,
2013-12-02 19:55:00,40.8,30.3,30.55,ENE,68,0.0,0.0,66,0.00,,,0.00,WUHU216HW,2013-12-03 00:55:00,
2013-12-02 20:00:00,40.8,30.3,30.55,NE,45,0.0,0.0,66,0.00,,,0.00,WUHU216HW,2013-12-03 01:00:00,
2013-12-02 20:05:00,41.0,30.4,30.56,NE,45,0.0,0.0,66,0.00,,,0.00,WUHU216HW,2013-12-03 01:05:00,
2013-12-02 20:10:00,40.8,30.3,30.56,NE,45,0.0,0.0,66,0.00,,,0.00,WUHU216HW,2013-12-03 01:10:00,
2013-12-02 20:15:00,40.6,30.1,30.56,NE,45,0.0,0.0,66,0.00,,,0.00,WUHU216HW,2013-12-03 01:15:00,
2013-12-02 20:20:00,40.6,30.1,30.56,NE,45,0.0,0.0,66,0.00,,,0.00,WUHU216HW,2013-12-03 01:20:00,
2013-12-02 20:25:00,40.6,30.1,30.56,NE,45,0.0,0.0,66,0.00,,,0.00,WUHU216HW,2013-12-03 01:25:00,
2013-12-02 20:30:00,40.6,30.1,30.56,NNE,23,0.0,0.0,66,0.00,,,0.00,WUHU216HW,2013-12-03 01:30:00,
2013-12-02 20:35:00,40.6,30.5,30.56,NE,45,0.0,0.0,67,0.00,,,0.00,WUHU216HW,2013-12-03 01:35:00,
2013-12-02 20:40:00,40.4,30.3,30.56,NE,45,0.0,0.0,67,0.00,,,0.00,WUHU216HW,2013-12-03 01:40:00,
2013-12-02 20:46:00,40.4,30.3,30.56,North,0,0.0,0.0,67,0.00,,,0.00,WUHU216HW,2013-12-03 01:46:00,
2013-12-02 20:50:00,40.4,30.3,30.56,NNE,23,0.0,0.0,67,0.00,,,0.00,WUHU216HW,2013-12-03 01:50:00,
2013-12-02 20:55:00,40.2,30.1,30.56,NNE,23,0.0,0.0,67,0.00,,,0.00,WUHU216HW,2013-12-03 01:55:00,
2013-12-02 21:00:00,40.4,30.7,30.56,NNE,23,0.0,0.0,68,0.00,,,0.00,WUHU216HW,2013-12-03 02:00:00,
2013-12-02 21:06:00,40.1,30.3,30.56,NNE,23,0.0,0.0,68,0.00,,,0.00,WUHU216HW,2013-12-03 02:06:00,
2013-12-02 21:10:00,40.1,30.3,30.56,NNE,23,0.0,0.0,68,0.00,,,0.00,WUHU216HW,2013-12-03 02:10:00,
2013-12-02 21:15:00,40.1,30.3,30.56,NNE,23,0.0,0.0,68,0.00,,,0.00,WUHU216HW,2013-12-03 02:15:00,
2013-12-02 21:20:00,40.1,30.3,30.56,NNE,23,0.0,0.0,68,0.00,,,0.00,WUHU216HW,2013-12-03 02:20:00,
2013-12-02 21:25:00,40.1,30.7,30.56,NNE,23,0.0,0.0,69,0.00,,,0.00,WUHU216HW,2013-12-03 02:25:00,
2013-12-02 21:30:00,39.9,30.5,30.56,NNE,23,0.0,0.0,69,0.00,,,0.00,WUHU216HW,2013-12-03 02:30:00,
2013-12-02 21:35:00,40.1,30.5,30.56,NNE,23,0.0,0.0,69,0.00,,,0.00,WUHU216HW,2013-12-03 02:35:00,
2013-12-02 21:40:00,39.9,30.5,30.56,NNE,23,0.0,0.0,69,0.00,,,0.00,WUHU216HW,2013-12-03 02:40:00,
2013-12-02 21:45:00,39.7,30.3,30.56,NNE,23,0.0,0.0,69,0.00,,,0.00,WUHU216HW,2013-12-03 02:45:00,
2013-12-02 21:50:00,39.7,30.3,30.56,NNE,23,0.0,0.0,69,0.00,,,0.00,WUHU216HW,2013-12-03 02:50:00,
2013-12-02 21:56:00,39.5,30.5,30.56,NNE,23,0.0,0.0,70,0.00,,,0.00,WUHU216HW,2013-12-03 02:56:00,
2013-12-02 22:01:00,39.5,30.5,30.56,NNE,23,0.0,0.0,70,0.00,,,0.00,WUHU216HW,2013-12-03 03:01:00,
2013-12-02 22:06:00,39.5,30.5,30.56,NNE,23,0.0,0.0,70,0.00,,,0.00,WUHU216HW,2013-12-03 03:06:00,
2013-12-02 22:10:00,39.3,30.3,30.56,NNE,23,0.0,0.0,70,0.00,,,0.00,WUHU216HW,2013-12-03 03:10:00,
2013-12-02 22:15:00,39.3,30.3,30.56,NNE,23,0.0,0.0,70,0.00,,,0.00,WUHU216HW,2013-12-03 03:15:00,
2013-12-02 22:20:00,39.3,30.3,30.56,NNE,23,0.0,0.0,70,0.00,,,0.00,WUHU216HW,2013-12-03 03:20:00,
2013-12-02 22:25:00,39.3,30.7,30.55,NNE,23,0.0,0.0,71,0.00,,,0.00,WUHU216HW,2013-12-03 03:25:00,
2013-12-02 22:30:00,39.2,30.5,30.56,NNE,23,0.0,0.0,71,0.00,,,0.00,WUHU216HW,2013-12-03 03:30:00,
2013-12-02 22:35:00,39.2,30.5,30.55,NNE,23,0.0,0.0,71,0.00,,,0.00,WUHU216HW,2013-12-03 03:35:00,
2013-12-02 22:40:00,39.0,30.3,30.55,NNE,23,0.0,0.0,71,0.00,,,0.00,WUHU216HW,2013-12-03 03:40:00,
2013-12-02 22:46:00,38.8,30.2,30.56,NNE,23,0.0,0.0,71,0.00,,,0.00,WUHU216HW,2013-12-03 03:46:00,
2013-12-02 22:51:00,38.8,30.2,30.56,NNE,23,0.0,0.0,71,0.00,,,0.00,WUHU216HW,2013-12-03 03:51:00,
2013-12-02 22:56:00,38.8,30.2,30.56,NNE,23,0.0,0.0,71,0.00,,,0.00,WUHU216HW,2013-12-03 03:56:00,
2013-12-02 23:01:00,38.8,30.5,30.56,NNE,23,0.0,0.0,72,0.00,,,0.00,WUHU216HW,2013-12-03 04:01:00,
2013-12-02 23:06:00,38.6,30.5,30.56,NNE,23,0.0,0.0,72,0.00,,,0.00,WUHU216HW,2013-12-03 04:06:00,
2013-12-02 23:11:00,38.8,30.3,30.56,NNE,23,0.0,0.0,72,0.00,,,0.00,WUHU216HW,2013-12-03 04:11:00,
2013-12-02 23:15:00,38.6,30.3,30.56,NNE,23,0.0,0.0,72,0.00,,,0.00,WUHU216HW,2013-12-03 04:15:00,
2013-12-02 23:21:00,38.6,30.3,30.56,NNE,23,0.0,0.0,72,0.00,,,0.00,WUHU216HW,2013-12-03 04:21:00,
2013-12-02 23:26:00,38.4,30.7,30.56,NNE,23,0.0,0.0,73,0.00,,,0.00,WUHU216HW,2013-12-03 04:26:00,
2013-12-02 23:31:00,38.4,30.5,30.56,NNE,23,0.0,0.0,73,0.00,,,0.00,WUHU216HW,2013-12-03 04:31:00,
2013-12-02 23:35:00,38.3,30.3,30.56,NNE,23,0.0,0.0,73,0.00,,,0.00,WUHU216HW,2013-12-03 04:35:00,
2013-12-02 23:40:00,38.3,30.3,30.56,NNE,23,0.0,0.0,73,0.00,,,0.00,WUHU216HW,2013-12-03 04:40:00,
2013-12-02 23:45:00,38.3,30.3,30.56,NNE,23,0.0,0.0,73,0.00,,,0.00,WUHU216HW,2013-12-03 04:45:00,
2013-12-02 23:50:00,38.3,30.3,30.56,NNE,23,0.0,0.0,73,0.00,,,0.00,WUHU216HW,2013-12-03 04:50:00,
2013-12-02 23:55:00,38.3,30.7,30.56,NNE,23,0.0,0.0,74,0.00,,,0.00,WUHU216HW,2013-12-03 04:55:00,